sensor_id;sensor_type;location;lat;lon;timestamp;P1;durP1;ratioP1;P2;durP2;ratioP2
13785;SDS011;47474;48.824;9.384;2023-05-17T00:01:53;3.53;;;1.47;;
13785;SDS011;47474;48.824;9.384;2023-05-17T00:04:22;4.10;;;1.30;;
13785;SDS011;47474;48.824;9.384;2023-05-17T00:06:48;3.17;;;1.30;;
13785;SDS011;47474;48.824;9.384;2023-05-17T00:09:14;2.90;;;1.30;;
13785;SDS011;47474;48.824;9.384;2023-05-17T00:11:41;1.77;;;1.33;;
13785;SDS011;47474;48.824;9.384;2023-05-17T00:14:07;2.57;;;1.67;;
13785;SDS011;47474;48.824;9.384;2023-05-17T00:16:34;4.73;;;1.90;;
13785;SDS011;47474;48.824;9.384;2023-05-17T00:19:00;5.07;;;2.27;;
13785;SDS011;47474;48.824;9.384;2023-05-17T00:21:28;4.87;;;1.80;;
13785;SDS011;47474;48.824;9.384;2023-05-17T00:23:55;2.13;;;1.60;;
13785;SDS011;47474;48.824;9.384;2023-05-17T00:26:21;3.23;;;1.90;;
13785;SDS011;47474;48.824;9.384;2023-05-17T00:28:48;3.43;;;2.00;;
13785;SDS011;47474;48.824;9.384;2023-05-17T00:31:15;3.33;;;2.10;;
13785;SDS011;47474;48.824;9.384;2023-05-17T00:33:41;3.73;;;2.17;;
13785;SDS011;47474;48.824;9.384;2023-05-17T00:36:08;3.67;;;1.73;;
13785;SDS011;47474;48.824;9.384;2023-05-17T00:38:36;2.93;;;1.57;;
13785;SDS011;47474;48.824;9.384;2023-05-17T00:41:02;3.00;;;2.17;;
13785;SDS011;47474;48.824;9.384;2023-05-17T00:43:28;3.53;;;2.00;;
13785;SDS011;47474;48.824;9.384;2023-05-17T00:45:55;2.70;;;2.00;;
13785;SDS011;47474;48.824;9.384;2023-05-17T00:48:22;2.70;;;1.87;;
13785;SDS011;47474;48.824;9.384;2023-05-17T00:50:50;4.70;;;1.90;;
13785;SDS011;47474;48.824;9.384;2023-05-17T00:53:17;5.70;;;1.80;;
13785;SDS011;47474;48.824;9.384;2023-05-17T00:55:45;3.03;;;2.07;;
13785;SDS011;47474;48.824;9.384;2023-05-17T00:58:11;2.83;;;2.00;;
13785;SDS011;47474;48.824;9.384;2023-05-17T01:00:39;2.97;;;2.27;;
13785;SDS011;47474;48.824;9.384;2023-05-17T01:03:05;2.80;;;1.60;;
13785;SDS011;47474;48.824;9.384;2023-05-17T01:05:32;4.13;;;2.13;;
13785;SDS011;47474;48.824;9.384;2023-05-17T01:07:58;4.20;;;1.90;;
13785;SDS011;47474;48.824;9.384;2023-05-17T01:10:27;3.80;;;2.20;;
13785;SDS011;47474;48.824;9.384;2023-05-17T01:13:01;2.60;;;1.90;;
13785;SDS011;47474;48.824;9.384;2023-05-17T01:15:31;5.73;;;2.50;;
13785;SDS011;47474;48.824;9.384;2023-05-17T01:17:59;4.00;;;2.00;;
13785;SDS011;47474;48.824;9.384;2023-05-17T01:20:33;6.33;;;2.43;;
13785;SDS011;47474;48.824;9.384;2023-05-17T01:23:08;3.87;;;2.13;;
13785;SDS011;47474;48.824;9.384;2023-05-17T01:25:47;2.77;;;2.20;;
13785;SDS011;47474;48.824;9.384;2023-05-17T01:28:18;4.93;;;2.30;;
13785;SDS011;47474;48.824;9.384;2023-05-17T01:30:45;5.87;;;2.63;;
13785;SDS011;47474;48.824;9.384;2023-05-17T01:33:12;5.10;;;2.07;;
13785;SDS011;47474;48.824;9.384;2023-05-17T01:35:39;2.70;;;1.83;;
13785;SDS011;47474;48.824;9.384;2023-05-17T01:38:05;2.50;;;2.10;;
13785;SDS011;47474;48.824;9.384;2023-05-17T01:40:32;4.90;;;2.10;;
13785;SDS011;47474;48.824;9.384;2023-05-17T01:43:03;3.23;;;2.10;;
13785;SDS011;47474;48.824;9.384;2023-05-17T01:45:35;3.77;;;2.37;;
13785;SDS011;47474;48.824;9.384;2023-05-17T01:48:05;2.90;;;2.10;;
13785;SDS011;47474;48.824;9.384;2023-05-17T01:50:37;2.10;;;1.90;;
13785;SDS011;47474;48.824;9.384;2023-05-17T01:53:06;3.27;;;2.00;;
13785;SDS011;47474;48.824;9.384;2023-05-17T01:55:38;2.47;;;1.90;;
13785;SDS011;47474;48.824;9.384;2023-05-17T01:58:07;3.33;;;1.90;;
13785;SDS011;47474;48.824;9.384;2023-05-17T02:00:35;5.90;;;2.10;;
13785;SDS011;47474;48.824;9.384;2023-05-17T02:03:04;4.73;;;2.07;;
13785;SDS011;47474;48.824;9.384;2023-05-17T02:05:30;2.97;;;2.17;;
13785;SDS011;47474;48.824;9.384;2023-05-17T02:07:57;2.53;;;1.90;;
13785;SDS011;47474;48.824;9.384;2023-05-17T02:10:23;2.50;;;1.90;;
13785;SDS011;47474;48.824;9.384;2023-05-17T02:12:49;3.37;;;1.77;;
13785;SDS011;47474;48.824;9.384;2023-05-17T02:15:16;5.47;;;1.93;;
13785;SDS011;47474;48.824;9.384;2023-05-17T02:17:44;1.90;;;1.60;;
13785;SDS011;47474;48.824;9.384;2023-05-17T02:20:10;2.50;;;1.63;;
13785;SDS011;47474;48.824;9.384;2023-05-17T02:22:37;3.87;;;1.73;;
13785;SDS011;47474;48.824;9.384;2023-05-17T02:25:03;2.63;;;1.60;;
13785;SDS011;47474;48.824;9.384;2023-05-17T02:27:30;2.37;;;1.60;;
13785;SDS011;47474;48.824;9.384;2023-05-17T02:29:57;2.00;;;1.50;;
13785;SDS011;47474;48.824;9.384;2023-05-17T02:32:23;2.20;;;1.90;;
13785;SDS011;47474;48.824;9.384;2023-05-17T02:34:51;3.53;;;1.90;;
13785;SDS011;47474;48.824;9.384;2023-05-17T02:37:18;2.73;;;1.63;;
13785;SDS011;47474;48.824;9.384;2023-05-17T02:39:44;3.13;;;1.60;;
13785;SDS011;47474;48.824;9.384;2023-05-17T02:42:11;3.23;;;2.27;;
13785;SDS011;47474;48.824;9.384;2023-05-17T02:44:37;4.23;;;1.70;;
13785;SDS011;47474;48.824;9.384;2023-05-17T02:47:04;2.53;;;1.80;;
13785;SDS011;47474;48.824;9.384;2023-05-17T02:49:31;5.03;;;2.03;;
13785;SDS011;47474;48.824;9.384;2023-05-17T02:51:58;2.00;;;1.70;;
13785;SDS011;47474;48.824;9.384;2023-05-17T02:54:26;4.33;;;1.80;;
13785;SDS011;47474;48.824;9.384;2023-05-17T02:56:52;3.63;;;1.67;;
13785;SDS011;47474;48.824;9.384;2023-05-17T02:59:19;4.80;;;2.00;;
13785;SDS011;47474;48.824;9.384;2023-05-17T03:01:45;2.93;;;1.87;;
13785;SDS011;47474;48.824;9.384;2023-05-17T03:04:12;4.03;;;1.77;;
13785;SDS011;47474;48.824;9.384;2023-05-17T03:06:39;2.13;;;1.90;;
13785;SDS011;47474;48.824;9.384;2023-05-17T03:09:07;3.57;;;2.00;;
13785;SDS011;47474;48.824;9.384;2023-05-17T03:11:33;1.77;;;1.53;;
13785;SDS011;47474;48.824;9.384;2023-05-17T03:14:00;2.00;;;1.80;;
13785;SDS011;47474;48.824;9.384;2023-05-17T03:16:26;4.40;;;1.90;;
13785;SDS011;47474;48.824;9.384;2023-05-17T03:18:52;2.67;;;1.60;;
13785;SDS011;47474;48.824;9.384;2023-05-17T03:21:19;2.10;;;1.40;;
13785;SDS011;47474;48.824;9.384;2023-05-17T03:23:45;3.30;;;1.80;;
13785;SDS011;47474;48.824;9.384;2023-05-17T03:26:13;3.10;;;1.90;;
13785;SDS011;47474;48.824;9.384;2023-05-17T03:28:40;2.50;;;1.60;;
13785;SDS011;47474;48.824;9.384;2023-05-17T03:31:06;2.50;;;1.67;;
13785;SDS011;47474;48.824;9.384;2023-05-17T03:33:33;3.10;;;1.70;;
13785;SDS011;47474;48.824;9.384;2023-05-17T03:35:59;1.73;;;1.47;;
13785;SDS011;47474;48.824;9.384;2023-05-17T03:38:26;5.43;;;2.07;;
13785;SDS011;47474;48.824;9.384;2023-05-17T03:40:53;2.47;;;1.87;;
13785;SDS011;47474;48.824;9.384;2023-05-17T03:43:20;2.13;;;1.90;;
13785;SDS011;47474;48.824;9.384;2023-05-17T03:45:47;1.67;;;1.50;;
13785;SDS011;47474;48.824;9.384;2023-05-17T03:48:13;1.97;;;1.87;;
13785;SDS011;47474;48.824;9.384;2023-05-17T03:50:40;3.67;;;2.30;;
13785;SDS011;47474;48.824;9.384;2023-05-17T03:53:06;2.17;;;1.80;;
13785;SDS011;47474;48.824;9.384;2023-05-17T03:55:33;2.03;;;1.50;;
13785;SDS011;47474;48.824;9.384;2023-05-17T03:57:59;3.07;;;1.77;;
13785;SDS011;47474;48.824;9.384;2023-05-17T04:00:27;1.87;;;1.70;;
13785;SDS011;47474;48.824;9.384;2023-05-17T04:02:53;2.17;;;1.80;;
13785;SDS011;47474;48.824;9.384;2023-05-17T04:05:20;6.37;;;2.00;;
13785;SDS011;47474;48.824;9.384;2023-05-17T04:07:46;2.40;;;1.67;;
13785;SDS011;47474;48.824;9.384;2023-05-17T04:10:13;2.83;;;1.90;;
13785;SDS011;47474;48.824;9.384;2023-05-17T04:12:40;3.27;;;1.90;;
13785;SDS011;47474;48.824;9.384;2023-05-17T04:15:06;2.57;;;1.70;;
13785;SDS011;47474;48.824;9.384;2023-05-17T04:17:35;2.43;;;1.77;;
13785;SDS011;47474;48.824;9.384;2023-05-17T04:20:01;3.43;;;1.80;;
13785;SDS011;47474;48.824;9.384;2023-05-17T04:22:30;4.23;;;1.93;;
13785;SDS011;47474;48.824;9.384;2023-05-17T04:24:56;3.33;;;1.83;;
13785;SDS011;47474;48.824;9.384;2023-05-17T04:27:23;4.03;;;2.00;;
13785;SDS011;47474;48.824;9.384;2023-05-17T04:29:49;2.20;;;1.83;;
13785;SDS011;47474;48.824;9.384;2023-05-17T04:32:16;2.37;;;2.17;;
13785;SDS011;47474;48.824;9.384;2023-05-17T04:34:44;3.37;;;2.03;;
13785;SDS011;47474;48.824;9.384;2023-05-17T04:37:12;3.70;;;2.17;;
13785;SDS011;47474;48.824;9.384;2023-05-17T04:39:38;1.97;;;1.77;;
13785;SDS011;47474;48.824;9.384;2023-05-17T04:42:05;2.87;;;2.27;;
13785;SDS011;47474;48.824;9.384;2023-05-17T04:44:31;4.17;;;2.57;;
13785;SDS011;47474;48.824;9.384;2023-05-17T04:46:58;5.73;;;3.33;;
13785;SDS011;47474;48.824;9.384;2023-05-17T04:49:24;3.90;;;2.93;;
13785;SDS011;47474;48.824;9.384;2023-05-17T04:51:52;4.40;;;2.43;;
13785;SDS011;47474;48.824;9.384;2023-05-17T04:54:18;5.43;;;1.90;;
13785;SDS011;47474;48.824;9.384;2023-05-17T04:56:45;2.57;;;2.00;;
13785;SDS011;47474;48.824;9.384;2023-05-17T04:59:11;2.90;;;1.97;;
13785;SDS011;47474;48.824;9.384;2023-05-17T05:01:38;3.50;;;2.00;;
13785;SDS011;47474;48.824;9.384;2023-05-17T05:04:04;2.47;;;1.70;;
13785;SDS011;47474;48.824;9.384;2023-05-17T05:06:31;2.53;;;1.80;;
13785;SDS011;47474;48.824;9.384;2023-05-17T05:08:59;3.03;;;2.20;;
13785;SDS011;47474;48.824;9.384;2023-05-17T05:11:25;3.70;;;1.87;;
13785;SDS011;47474;48.824;9.384;2023-05-17T05:13:52;2.53;;;2.23;;
13785;SDS011;47474;48.824;9.384;2023-05-17T05:16:18;3.00;;;2.10;;
13785;SDS011;47474;48.824;9.384;2023-05-17T05:18:52;3.93;;;2.33;;
13785;SDS011;47474;48.824;9.384;2023-05-17T05:21:19;2.83;;;2.53;;
13785;SDS011;47474;48.824;9.384;2023-05-17T05:23:45;2.57;;;2.20;;
13785;SDS011;47474;48.824;9.384;2023-05-17T05:26:27;3.83;;;2.07;;
13785;SDS011;47474;48.824;9.384;2023-05-17T05:28:54;3.90;;;2.03;;
13785;SDS011;47474;48.824;9.384;2023-05-17T05:31:20;5.67;;;2.53;;
13785;SDS011;47474;48.824;9.384;2023-05-17T05:33:47;3.27;;;2.13;;
13785;SDS011;47474;48.824;9.384;2023-05-17T05:36:14;3.20;;;2.23;;
13785;SDS011;47474;48.824;9.384;2023-05-17T05:38:40;3.70;;;2.47;;
13785;SDS011;47474;48.824;9.384;2023-05-17T05:41:07;2.37;;;2.10;;
13785;SDS011;47474;48.824;9.384;2023-05-17T05:43:34;3.63;;;2.40;;
13785;SDS011;47474;48.824;9.384;2023-05-17T05:46:01;5.13;;;2.60;;
13785;SDS011;47474;48.824;9.384;2023-05-17T05:48:28;3.50;;;2.80;;
13785;SDS011;47474;48.824;9.384;2023-05-17T05:50:54;3.50;;;2.27;;
13785;SDS011;47474;48.824;9.384;2023-05-17T05:53:21;3.67;;;2.70;;
13785;SDS011;47474;48.824;9.384;2023-05-17T05:55:47;6.40;;;2.90;;
13785;SDS011;47474;48.824;9.384;2023-05-17T05:58:14;3.47;;;2.73;;
13785;SDS011;47474;48.824;9.384;2023-05-17T06:00:42;5.13;;;2.40;;
13785;SDS011;47474;48.824;9.384;2023-05-17T06:03:08;3.53;;;2.60;;
13785;SDS011;47474;48.824;9.384;2023-05-17T06:05:35;2.37;;;2.17;;
13785;SDS011;47474;48.824;9.384;2023-05-17T06:08:02;3.70;;;2.73;;
13785;SDS011;47474;48.824;9.384;2023-05-17T06:10:28;5.40;;;2.97;;
13785;SDS011;47474;48.824;9.384;2023-05-17T06:12:55;6.90;;;2.90;;
13785;SDS011;47474;48.824;9.384;2023-05-17T06:15:21;5.27;;;2.90;;
13785;SDS011;47474;48.824;9.384;2023-05-17T06:17:49;3.23;;;2.43;;
13785;SDS011;47474;48.824;9.384;2023-05-17T06:20:15;8.37;;;2.53;;
13785;SDS011;47474;48.824;9.384;2023-05-17T06:22:42;2.53;;;2.30;;
13785;SDS011;47474;48.824;9.384;2023-05-17T06:25:08;6.10;;;2.73;;
13785;SDS011;47474;48.824;9.384;2023-05-17T06:27:37;4.00;;;2.47;;
13785;SDS011;47474;48.824;9.384;2023-05-17T06:30:05;4.07;;;2.20;;
13785;SDS011;47474;48.824;9.384;2023-05-17T06:32:32;3.43;;;2.20;;
13785;SDS011;47474;48.824;9.384;2023-05-17T06:35:01;3.97;;;2.60;;
13785;SDS011;47474;48.824;9.384;2023-05-17T06:37:27;4.53;;;2.50;;
13785;SDS011;47474;48.824;9.384;2023-05-17T06:40:00;8.17;;;2.47;;
13785;SDS011;47474;48.824;9.384;2023-05-17T06:42:27;4.50;;;2.40;;
13785;SDS011;47474;48.824;9.384;2023-05-17T06:44:54;3.00;;;2.07;;
13785;SDS011;47474;48.824;9.384;2023-05-17T06:47:20;2.37;;;2.17;;
13785;SDS011;47474;48.824;9.384;2023-05-17T06:49:47;4.97;;;2.70;;
13785;SDS011;47474;48.824;9.384;2023-05-17T06:52:14;5.17;;;2.23;;
13785;SDS011;47474;48.824;9.384;2023-05-17T06:54:41;4.53;;;2.27;;
13785;SDS011;47474;48.824;9.384;2023-05-17T06:57:07;3.23;;;1.90;;
13785;SDS011;47474;48.824;9.384;2023-05-17T06:59:34;5.67;;;2.37;;
13785;SDS011;47474;48.824;9.384;2023-05-17T07:02:01;4.40;;;2.23;;
13785;SDS011;47474;48.824;9.384;2023-05-17T07:04:27;3.30;;;2.13;;
13785;SDS011;47474;48.824;9.384;2023-05-17T07:06:54;6.57;;;2.50;;
13785;SDS011;47474;48.824;9.384;2023-05-17T07:09:21;5.33;;;2.53;;
13785;SDS011;47474;48.824;9.384;2023-05-17T07:11:48;3.57;;;2.70;;
13785;SDS011;47474;48.824;9.384;2023-05-17T07:14:14;3.13;;;2.60;;
13785;SDS011;47474;48.824;9.384;2023-05-17T07:16:41;3.43;;;2.43;;
13785;SDS011;47474;48.824;9.384;2023-05-17T07:19:07;3.60;;;2.47;;
13785;SDS011;47474;48.824;9.384;2023-05-17T07:21:34;7.93;;;2.70;;
13785;SDS011;47474;48.824;9.384;2023-05-17T07:24:00;5.77;;;2.60;;
13785;SDS011;47474;48.824;9.384;2023-05-17T07:26:28;7.33;;;2.70;;
13785;SDS011;47474;48.824;9.384;2023-05-17T07:28:54;5.73;;;2.53;;
13785;SDS011;47474;48.824;9.384;2023-05-17T07:31:21;4.47;;;2.83;;
13785;SDS011;47474;48.824;9.384;2023-05-17T07:33:47;3.60;;;2.47;;
13785;SDS011;47474;48.824;9.384;2023-05-17T07:36:14;6.53;;;3.10;;
13785;SDS011;47474;48.824;9.384;2023-05-17T07:38:40;4.37;;;2.73;;
13785;SDS011;47474;48.824;9.384;2023-05-17T07:41:07;5.33;;;2.37;;
13785;SDS011;47474;48.824;9.384;2023-05-17T07:43:35;4.87;;;2.63;;
13785;SDS011;47474;48.824;9.384;2023-05-17T07:46:02;7.97;;;2.50;;
13785;SDS011;47474;48.824;9.384;2023-05-17T07:48:28;6.53;;;2.33;;
13785;SDS011;47474;48.824;9.384;2023-05-17T07:50:55;3.50;;;2.27;;
13785;SDS011;47474;48.824;9.384;2023-05-17T07:53:21;5.80;;;2.63;;
13785;SDS011;47474;48.824;9.384;2023-05-17T07:55:47;3.47;;;2.20;;
13785;SDS011;47474;48.824;9.384;2023-05-17T07:58:14;5.83;;;2.63;;
13785;SDS011;47474;48.824;9.384;2023-05-17T08:00:42;4.90;;;2.60;;
13785;SDS011;47474;48.824;9.384;2023-05-17T08:03:08;5.30;;;2.70;;
13785;SDS011;47474;48.824;9.384;2023-05-17T08:05:35;3.57;;;2.37;;
13785;SDS011;47474;48.824;9.384;2023-05-17T08:08:01;4.63;;;2.63;;
13785;SDS011;47474;48.824;9.384;2023-05-17T08:10:28;5.47;;;2.70;;
13785;SDS011;47474;48.824;9.384;2023-05-17T08:12:54;2.90;;;2.30;;
13785;SDS011;47474;48.824;9.384;2023-05-17T08:15:20;4.23;;;3.20;;
13785;SDS011;47474;48.824;9.384;2023-05-17T08:17:48;3.77;;;2.67;;
13785;SDS011;47474;48.824;9.384;2023-05-17T08:20:15;3.80;;;2.60;;
13785;SDS011;47474;48.824;9.384;2023-05-17T08:22:42;5.67;;;2.80;;
13785;SDS011;47474;48.824;9.384;2023-05-17T08:25:08;5.57;;;2.80;;
13785;SDS011;47474;48.824;9.384;2023-05-17T08:27:35;4.77;;;2.93;;
13785;SDS011;47474;48.824;9.384;2023-05-17T08:30:02;5.83;;;3.30;;
13785;SDS011;47474;48.824;9.384;2023-05-17T08:32:29;4.23;;;2.53;;
13785;SDS011;47474;48.824;9.384;2023-05-17T08:34:57;5.03;;;2.80;;
13785;SDS011;47474;48.824;9.384;2023-05-17T08:37:23;3.87;;;3.00;;
13785;SDS011;47474;48.824;9.384;2023-05-17T08:39:50;6.73;;;3.10;;
13785;SDS011;47474;48.824;9.384;2023-05-17T08:42:16;6.10;;;3.13;;
13785;SDS011;47474;48.824;9.384;2023-05-17T08:44:49;4.43;;;2.80;;
13785;SDS011;47474;48.824;9.384;2023-05-17T08:47:15;4.93;;;2.90;;
13785;SDS011;47474;48.824;9.384;2023-05-17T08:49:49;5.37;;;2.70;;
13785;SDS011;47474;48.824;9.384;2023-05-17T08:52:17;7.70;;;3.00;;
13785;SDS011;47474;48.824;9.384;2023-05-17T08:54:44;4.60;;;2.93;;
13785;SDS011;47474;48.824;9.384;2023-05-17T08:57:11;6.10;;;2.93;;
13785;SDS011;47474;48.824;9.384;2023-05-17T08:59:37;5.13;;;2.70;;
13785;SDS011;47474;48.824;9.384;2023-05-17T09:02:05;3.63;;;2.57;;
13785;SDS011;47474;48.824;9.384;2023-05-17T09:04:32;5.23;;;2.87;;
13785;SDS011;47474;48.824;9.384;2023-05-17T09:06:58;4.77;;;2.60;;
13785;SDS011;47474;48.824;9.384;2023-05-17T09:09:26;4.00;;;2.93;;
13785;SDS011;47474;48.824;9.384;2023-05-17T09:11:53;4.33;;;2.13;;
13785;SDS011;47474;48.824;9.384;2023-05-17T09:14:19;4.90;;;3.07;;
13785;SDS011;47474;48.824;9.384;2023-05-17T09:16:46;4.50;;;2.70;;
13785;SDS011;47474;48.824;9.384;2023-05-17T09:19:13;4.10;;;2.80;;
13785;SDS011;47474;48.824;9.384;2023-05-17T09:21:44;5.73;;;2.77;;
13785;SDS011;47474;48.824;9.384;2023-05-17T09:24:11;4.97;;;2.63;;
13785;SDS011;47474;48.824;9.384;2023-05-17T09:26:39;5.77;;;2.53;;
13785;SDS011;47474;48.824;9.384;2023-05-17T09:29:06;4.70;;;2.60;;
13785;SDS011;47474;48.824;9.384;2023-05-17T09:31:34;6.47;;;2.80;;
13785;SDS011;47474;48.824;9.384;2023-05-17T09:34:00;3.23;;;2.30;;
13785;SDS011;47474;48.824;9.384;2023-05-17T09:36:27;4.50;;;3.07;;
13785;SDS011;47474;48.824;9.384;2023-05-17T09:38:53;5.73;;;2.90;;
13785;SDS011;47474;48.824;9.384;2023-05-17T09:41:21;7.57;;;3.10;;
13785;SDS011;47474;48.824;9.384;2023-05-17T09:43:49;8.73;;;3.13;;
13785;SDS011;47474;48.824;9.384;2023-05-17T09:46:15;4.97;;;2.70;;
13785;SDS011;47474;48.824;9.384;2023-05-17T09:48:42;5.97;;;3.13;;
13785;SDS011;47474;48.824;9.384;2023-05-17T09:51:10;6.63;;;3.17;;
13785;SDS011;47474;48.824;9.384;2023-05-17T09:53:37;7.10;;;2.33;;
13785;SDS011;47474;48.824;9.384;2023-05-17T09:56:05;5.10;;;2.40;;
13785;SDS011;47474;48.824;9.384;2023-05-17T09:58:32;5.40;;;3.10;;
13785;SDS011;47474;48.824;9.384;2023-05-17T10:01:01;6.33;;;2.17;;
13785;SDS011;47474;48.824;9.384;2023-05-17T10:03:29;4.03;;;2.50;;
13785;SDS011;47474;48.824;9.384;2023-05-17T10:05:58;5.03;;;2.27;;
13785;SDS011;47474;48.824;9.384;2023-05-17T10:08:26;4.60;;;2.37;;
13785;SDS011;47474;48.824;9.384;2023-05-17T10:10:55;6.30;;;3.23;;
13785;SDS011;47474;48.824;9.384;2023-05-17T10:13:26;8.47;;;2.70;;
13785;SDS011;47474;48.824;9.384;2023-05-17T10:15:57;4.27;;;2.63;;
13785;SDS011;47474;48.824;9.384;2023-05-17T10:18:27;4.27;;;2.27;;
13785;SDS011;47474;48.824;9.384;2023-05-17T10:20:54;4.97;;;2.47;;
13785;SDS011;47474;48.824;9.384;2023-05-17T10:23:20;4.83;;;2.80;;
13785;SDS011;47474;48.824;9.384;2023-05-17T10:25:47;5.60;;;2.50;;
13785;SDS011;47474;48.824;9.384;2023-05-17T10:28:14;5.00;;;2.77;;
13785;SDS011;47474;48.824;9.384;2023-05-17T10:30:42;3.83;;;2.80;;
13785;SDS011;47474;48.824;9.384;2023-05-17T10:33:10;6.20;;;3.10;;
13785;SDS011;47474;48.824;9.384;2023-05-17T10:35:38;3.67;;;2.73;;
13785;SDS011;47474;48.824;9.384;2023-05-17T10:38:05;5.33;;;2.70;;
13785;SDS011;47474;48.824;9.384;2023-05-17T10:40:32;4.97;;;3.03;;
13785;SDS011;47474;48.824;9.384;2023-05-17T10:43:00;3.93;;;2.70;;
13785;SDS011;47474;48.824;9.384;2023-05-17T10:45:28;6.67;;;3.27;;
13785;SDS011;47474;48.824;9.384;2023-05-17T10:47:54;5.63;;;3.07;;
13785;SDS011;47474;48.824;9.384;2023-05-17T10:50:23;4.10;;;2.50;;
13785;SDS011;47474;48.824;9.384;2023-05-17T10:52:51;4.33;;;3.07;;
13785;SDS011;47474;48.824;9.384;2023-05-17T10:55:20;10.17;;;2.70;;
13785;SDS011;47474;48.824;9.384;2023-05-17T11:00:42;4.13;;;2.70;;
13785;SDS011;47474;48.824;9.384;2023-05-17T11:03:11;5.83;;;2.50;;
13785;SDS011;47474;48.824;9.384;2023-05-17T11:05:42;7.10;;;3.10;;
13785;SDS011;47474;48.824;9.384;2023-05-17T11:08:13;3.90;;;2.80;;
13785;SDS011;47474;48.824;9.384;2023-05-17T11:13:42;4.87;;;2.83;;
13785;SDS011;47474;48.824;9.384;2023-05-17T11:16:15;4.93;;;2.83;;
13785;SDS011;47474;48.824;9.384;2023-05-17T11:18:45;4.93;;;2.57;;
13785;SDS011;47474;48.824;9.384;2023-05-17T11:21:14;4.83;;;2.73;;
13785;SDS011;47474;48.824;9.384;2023-05-17T11:23:41;3.90;;;2.87;;
13785;SDS011;47474;48.824;9.384;2023-05-17T11:26:14;7.70;;;2.80;;
13785;SDS011;47474;48.824;9.384;2023-05-17T11:28:42;4.93;;;2.93;;
13785;SDS011;47474;48.824;9.384;2023-05-17T11:31:09;4.60;;;2.70;;
13785;SDS011;47474;48.824;9.384;2023-05-17T11:33:36;5.77;;;3.27;;
13785;SDS011;47474;48.824;9.384;2023-05-17T11:36:04;5.33;;;3.00;;
13785;SDS011;47474;48.824;9.384;2023-05-17T11:38:33;5.23;;;2.97;;
13785;SDS011;47474;48.824;9.384;2023-05-17T11:41:15;5.43;;;2.73;;
13785;SDS011;47474;48.824;9.384;2023-05-17T11:43:44;3.40;;;2.67;;
13785;SDS011;47474;48.824;9.384;2023-05-17T11:46:16;4.00;;;2.63;;
13785;SDS011;47474;48.824;9.384;2023-05-17T11:48:44;5.57;;;2.63;;
13785;SDS011;47474;48.824;9.384;2023-05-17T11:51:12;3.63;;;2.57;;
13785;SDS011;47474;48.824;9.384;2023-05-17T11:53:41;3.60;;;2.43;;
13785;SDS011;47474;48.824;9.384;2023-05-17T11:56:08;3.90;;;2.73;;
13785;SDS011;47474;48.824;9.384;2023-05-17T11:58:35;7.10;;;2.87;;
13785;SDS011;47474;48.824;9.384;2023-05-17T12:01:02;3.17;;;2.50;;
13785;SDS011;47474;48.824;9.384;2023-05-17T12:03:30;3.93;;;2.37;;
13785;SDS011;47474;48.824;9.384;2023-05-17T12:06:00;3.57;;;2.33;;
13785;SDS011;47474;48.824;9.384;2023-05-17T12:08:28;3.83;;;2.70;;
13785;SDS011;47474;48.824;9.384;2023-05-17T12:10:57;4.50;;;2.83;;
13785;SDS011;47474;48.824;9.384;2023-05-17T12:13:23;5.43;;;2.67;;
13785;SDS011;47474;48.824;9.384;2023-05-17T12:15:59;6.37;;;2.87;;
13785;SDS011;47474;48.824;9.384;2023-05-17T12:18:33;4.47;;;2.90;;
13785;SDS011;47474;48.824;9.384;2023-05-17T12:21:01;4.97;;;3.07;;
13785;SDS011;47474;48.824;9.384;2023-05-17T12:23:29;4.27;;;3.00;;
13785;SDS011;47474;48.824;9.384;2023-05-17T12:26:09;4.27;;;2.40;;
13785;SDS011;47474;48.824;9.384;2023-05-17T12:28:37;4.57;;;2.70;;
13785;SDS011;47474;48.824;9.384;2023-05-17T12:31:05;4.13;;;2.70;;
13785;SDS011;47474;48.824;9.384;2023-05-17T12:33:36;3.40;;;2.70;;
13785;SDS011;47474;48.824;9.384;2023-05-17T12:36:05;5.40;;;2.93;;
13785;SDS011;47474;48.824;9.384;2023-05-17T12:38:33;3.10;;;2.80;;
13785;SDS011;47474;48.824;9.384;2023-05-17T12:41:00;7.67;;;2.87;;
13785;SDS011;47474;48.824;9.384;2023-05-17T12:43:29;4.50;;;2.67;;
13785;SDS011;47474;48.824;9.384;2023-05-17T12:46:01;3.90;;;2.83;;
13785;SDS011;47474;48.824;9.384;2023-05-17T12:48:28;3.00;;;2.57;;
13785;SDS011;47474;48.824;9.384;2023-05-17T12:51:04;5.33;;;2.77;;
13785;SDS011;47474;48.824;9.384;2023-05-17T12:53:34;7.10;;;3.10;;
13785;SDS011;47474;48.824;9.384;2023-05-17T12:56:02;7.47;;;2.78;;
13785;SDS011;47474;48.824;9.384;2023-05-17T12:58:30;7.43;;;3.10;;
13785;SDS011;47474;48.824;9.384;2023-05-17T13:01:00;6.13;;;2.85;;
13785;SDS011;47474;48.824;9.384;2023-05-17T13:03:27;4.78;;;2.92;;
13785;SDS011;47474;48.824;9.384;2023-05-17T13:06:01;5.30;;;3.00;;
13785;SDS011;47474;48.824;9.384;2023-05-17T13:08:29;3.72;;;2.55;;
13785;SDS011;47474;48.824;9.384;2023-05-17T13:11:06;4.88;;;2.88;;
13785;SDS011;47474;48.824;9.384;2023-05-17T13:13:35;5.13;;;2.67;;
13785;SDS011;47474;48.824;9.384;2023-05-17T13:16:02;3.67;;;2.80;;
13785;SDS011;47474;48.824;9.384;2023-05-17T13:18:31;4.50;;;3.00;;
13785;SDS011;47474;48.824;9.384;2023-05-17T13:21:12;7.23;;;3.30;;
13785;SDS011;47474;48.824;9.384;2023-05-17T13:23:41;4.00;;;3.10;;
13785;SDS011;47474;48.824;9.384;2023-05-17T13:26:09;4.60;;;3.00;;
13785;SDS011;47474;48.824;9.384;2023-05-17T13:28:38;5.37;;;2.77;;
13785;SDS011;47474;48.824;9.384;2023-05-17T13:31:05;4.20;;;2.30;;
13785;SDS011;47474;48.824;9.384;2023-05-17T13:33:37;4.77;;;2.93;;
13785;SDS011;47474;48.824;9.384;2023-05-17T13:36:07;4.00;;;2.70;;
13785;SDS011;47474;48.824;9.384;2023-05-17T13:38:33;6.73;;;3.40;;
13785;SDS011;47474;48.824;9.384;2023-05-17T13:41:00;4.33;;;2.97;;
13785;SDS011;47474;48.824;9.384;2023-05-17T13:43:27;3.25;;;2.47;;
13785;SDS011;47474;48.824;9.384;2023-05-17T13:45:55;4.25;;;2.60;;
13785;SDS011;47474;48.824;9.384;2023-05-17T13:48:23;4.30;;;2.60;;
13785;SDS011;47474;48.824;9.384;2023-05-17T13:50:49;5.22;;;3.10;;
13785;SDS011;47474;48.824;9.384;2023-05-17T13:53:16;5.10;;;2.67;;
13785;SDS011;47474;48.824;9.384;2023-05-17T13:55:43;4.70;;;3.27;;
13785;SDS011;47474;48.824;9.384;2023-05-17T13:58:09;5.78;;;3.05;;
13785;SDS011;47474;48.824;9.384;2023-05-17T14:00:36;4.27;;;2.77;;
13785;SDS011;47474;48.824;9.384;2023-05-17T14:03:06;3.75;;;2.70;;
13785;SDS011;47474;48.824;9.384;2023-05-17T14:05:33;4.33;;;2.90;;
13785;SDS011;47474;48.824;9.384;2023-05-17T14:08:00;8.68;;;3.00;;
13785;SDS011;47474;48.824;9.384;2023-05-17T14:10:27;6.80;;;2.93;;
13785;SDS011;47474;48.824;9.384;2023-05-17T14:12:54;4.47;;;2.77;;
13785;SDS011;47474;48.824;9.384;2023-05-17T14:15:20;7.07;;;2.73;;
13785;SDS011;47474;48.824;9.384;2023-05-17T14:17:47;3.90;;;3.07;;
13785;SDS011;47474;48.824;9.384;2023-05-17T14:20:15;4.37;;;2.63;;
13785;SDS011;47474;48.824;9.384;2023-05-17T14:22:42;5.77;;;2.77;;
13785;SDS011;47474;48.824;9.384;2023-05-17T14:25:09;5.90;;;3.10;;
13785;SDS011;47474;48.824;9.384;2023-05-17T14:27:36;4.20;;;2.63;;
13785;SDS011;47474;48.824;9.384;2023-05-17T14:30:06;4.13;;;2.90;;
13785;SDS011;47474;48.824;9.384;2023-05-17T14:32:35;4.20;;;2.40;;
13785;SDS011;47474;48.824;9.384;2023-05-17T14:35:03;3.67;;;2.45;;
13785;SDS011;47474;48.824;9.384;2023-05-17T14:37:32;3.87;;;2.70;;
13785;SDS011;47474;48.824;9.384;2023-05-17T14:39:59;3.50;;;2.50;;
13785;SDS011;47474;48.824;9.384;2023-05-17T14:42:25;6.50;;;2.93;;
13785;SDS011;47474;48.824;9.384;2023-05-17T14:44:52;7.33;;;3.47;;
13785;SDS011;47474;48.824;9.384;2023-05-17T14:47:19;4.27;;;2.87;;
13785;SDS011;47474;48.824;9.384;2023-05-17T14:49:46;4.47;;;2.97;;
13785;SDS011;47474;48.824;9.384;2023-05-17T14:52:12;3.20;;;2.60;;
13785;SDS011;47474;48.824;9.384;2023-05-17T14:54:40;4.60;;;3.03;;
13785;SDS011;47474;48.824;9.384;2023-05-17T14:57:07;5.10;;;2.83;;